createdAt,value
2023-01-20T07:31:18.705Z,9.02
2023-01-20T07:33:47.838Z,17.67
2023-01-20T07:36:17.094Z,20.80
2023-01-20T07:38:47.901Z,24.40
2023-01-20T07:41:19.996Z,12.60
2023-01-20T07:43:49.933Z,19.13
2023-01-20T07:46:17.682Z,13.93
2023-01-20T07:48:46.837Z,21.90
2023-01-20T07:51:16.655Z,16.75
2023-01-20T07:53:48.352Z,17.48
2023-01-20T07:56:18.709Z,23.27
2023-01-20T07:58:45.938Z,18.63
2023-01-20T08:01:35.579Z,36.13
2023-01-20T08:04:02.685Z,23.85
2023-01-20T08:06:30.008Z,33.42
2023-01-20T08:09:01.585Z,37.85
2023-01-20T08:11:30.047Z,30.33
2023-01-20T08:13:57.607Z,25.80
2023-01-20T08:16:30.464Z,18.63
2023-01-20T08:18:57.638Z,13.85
2023-01-20T08:21:26.944Z,8.43
2023-01-20T08:24:01.775Z,8.77
2023-01-20T08:26:30.437Z,6.85
2023-01-20T08:29:07.190Z,7.78
2023-01-20T08:31:35.299Z,7.50
2023-01-20T08:34:02.918Z,8.63
2023-01-20T08:36:32.985Z,8.20
2023-01-20T08:39:02.816Z,8.05
2023-01-20T08:41:36.905Z,7.28
2023-01-20T08:44:06.005Z,8.82
2023-01-20T08:46:33.249Z,8.90
2023-01-20T08:49:00.410Z,8.40
2023-01-20T08:51:30.960Z,8.35
2023-01-20T08:53:59.763Z,8.63
2023-01-20T08:56:27.326Z,10.45
2023-01-20T08:58:56.820Z,15.73
2023-01-20T09:01:29.343Z,14.67
2023-01-20T09:04:05.311Z,17.45
2023-01-20T13:17:07.026Z,15.23
2023-01-20T13:19:38.640Z,12.63
2023-01-20T13:22:16.424Z,12.13
2023-01-20T13:24:47.206Z,12.63
2023-01-20T13:27:16.204Z,14.23
2023-01-20T13:30:32.307Z,10.57
2023-01-20T13:33:13.594Z,10.13
2023-01-20T13:35:40.703Z,11.25
2023-01-20T13:38:25.242Z,18.60
2023-01-20T13:40:55.968Z,18.33
2023-01-20T13:43:23.140Z,18.13
2023-01-20T13:46:10.151Z,13.80
2023-01-20T13:48:43.643Z,17.98
2023-01-20T13:51:20.129Z,13.98
2023-01-20T13:53:47.304Z,23.50
2023-01-20T13:56:27.988Z,15.13
2023-01-20T13:58:58.371Z,16.70
2023-01-20T14:01:26.444Z,15.55
2023-01-20T14:04:19.765Z,14.85
2023-01-20T14:06:52.353Z,17.70
2023-01-20T14:09:24.375Z,19.60
2023-01-20T14:11:57.484Z,20.67
2023-01-20T14:14:26.618Z,23.98
2023-01-20T14:16:53.733Z,25.75
2023-01-20T14:19:34.909Z,23.20
2023-01-20T14:22:04.909Z,26.63
2023-01-20T14:24:43.032Z,34.25
2023-01-20T14:27:19.892Z,40.83
2023-01-20T14:29:48.903Z,36.15
2023-01-20T14:32:29.065Z,32.05
2023-01-20T14:34:57.098Z,34.07
2023-01-20T14:37:37.645Z,24.05
2023-01-20T14:40:14.186Z,20.40
2023-01-20T14:42:41.620Z,18.88
2023-01-20T14:45:25.514Z,19.35
2023-01-20T14:47:53.057Z,21.60
2023-01-20T14:50:21.372Z,16.95
2023-01-20T14:52:48.983Z,19.38
2023-01-20T14:55:36.598Z,18.70
2023-01-20T14:58:16.897Z,14.35
2023-01-20T15:00:46.872Z,15.30
2023-01-20T15:03:20.843Z,15.95
2023-01-20T15:06:01.249Z,34.60
2023-01-20T15:08:56.808Z,20.55
2023-01-20T15:11:31.482Z,23.63
2023-01-20T15:14:01.707Z,12.93
2023-01-20T15:16:31.673Z,24.70
2023-01-20T15:19:16.838Z,26.63
2023-01-20T15:21:56.635Z,13.32
2023-01-20T15:24:25.220Z,12.10
2023-01-20T15:26:54.095Z,17.13
2023-01-20T15:29:33.453Z,13.63
2023-01-20T15:32:02.403Z,10.10
2023-01-20T15:34:29.849Z,9.52
2023-01-20T15:36:57.051Z,11.90
2023-01-20T15:39:29.267Z,15.47
2023-01-20T15:41:57.318Z,14.70
2023-01-20T15:44:25.959Z,15.07
2023-01-20T15:46:56.811Z,20.33
2023-01-20T15:49:25.659Z,21.10
2023-01-20T15:51:53.127Z,21.67
2023-01-20T15:54:20.321Z,22.10
2023-01-20T15:56:47.506Z,22.88
2023-01-20T15:59:16.826Z,22.30
2023-01-20T16:01:47.369Z,20.17
2023-01-20T16:04:14.462Z,13.43
2023-01-20T16:06:42.244Z,13.18
2023-01-20T16:09:26.110Z,12.02
2023-01-20T16:11:53.756Z,9.80
2023-01-20T16:14:22.030Z,13.02
2023-01-20T16:16:51.791Z,19.13
2023-01-20T16:19:18.890Z,11.80
2023-01-20T16:21:46.122Z,12.07
2023-01-20T16:24:13.453Z,13.07
2023-01-20T16:26:40.744Z,12.07
2023-01-20T16:29:09.652Z,12.37
2023-01-20T16:31:36.778Z,12.88
2023-01-20T16:34:05.155Z,14.98
2023-01-20T16:36:32.173Z,14.90
2023-01-20T16:38:59.252Z,22.77
2023-01-20T16:41:31.006Z,15.03
2023-01-20T16:43:58.726Z,14.63
2023-01-20T16:46:29.278Z,15.55
2023-01-20T16:49:01.695Z,14.18
2023-01-20T16:51:29.756Z,14.45
2023-01-20T16:53:57.793Z,13.93
2023-01-20T16:56:27.897Z,14.27
2023-01-20T16:58:59.686Z,14.65
2023-01-20T17:01:28.042Z,14.80
2023-01-20T17:03:57.516Z,19.60
2023-01-20T17:06:28.045Z,16.00
2023-01-20T17:08:57.837Z,16.25
2023-01-20T17:11:30.671Z,15.18
2023-01-20T17:13:58.719Z,17.65
2023-01-20T17:16:26.521Z,18.90
2023-01-20T17:18:56.074Z,17.20
2023-01-20T17:21:24.750Z,16.67
2023-01-20T17:24:02.727Z,17.25
2023-01-20T17:26:30.235Z,20.23
2023-01-20T17:29:03.360Z,22.25
2023-01-20T17:31:37.296Z,19.57
2023-01-20T17:34:05.789Z,14.82
2023-01-20T17:36:37.847Z,17.27
2023-01-20T17:39:06.583Z,16.73
2023-01-20T17:41:34.860Z,14.07
2023-01-20T17:44:05.943Z,11.93
